createdAt,value
2018-06-23T00:01:34.695Z,1.93
2018-06-23T00:04:03.628Z,1.63
2018-06-23T00:06:32.149Z,1.60
2018-06-23T00:09:01.000Z,1.70
2018-06-23T00:11:29.968Z,1.97
2018-06-23T00:13:58.867Z,1.80
2018-06-23T00:16:27.299Z,1.80
2018-06-23T00:18:56.226Z,1.73
2018-06-23T00:21:25.136Z,1.60
2018-06-23T00:23:53.671Z,1.70
2018-06-23T00:26:27.845Z,2.30
2018-06-23T00:28:56.736Z,1.80
2018-06-23T00:31:26.124Z,1.90
2018-06-23T00:33:55.167Z,2.10
2018-06-23T00:36:24.117Z,1.80
2018-06-23T00:38:53.042Z,1.90
2018-06-23T00:41:21.972Z,2.27
2018-06-23T00:43:50.956Z,1.70
2018-06-23T00:46:19.893Z,1.93
2018-06-23T00:48:48.815Z,1.70
2018-06-23T00:51:17.726Z,1.70
2018-06-23T00:53:46.691Z,2.00
2018-06-23T00:56:15.594Z,1.90
2018-06-23T00:58:55.644Z,1.93
2018-06-23T01:01:24.879Z,1.80
2018-06-23T01:03:53.402Z,2.00
2018-06-23T01:06:22.301Z,1.70
2018-06-23T01:08:51.199Z,1.73
2018-06-23T01:11:20.158Z,1.90
2018-06-23T01:13:49.054Z,1.80
2018-06-23T01:16:18.054Z,1.90
2018-06-23T01:18:46.932Z,1.60
2018-06-23T01:21:15.953Z,1.80
2018-06-23T01:23:44.884Z,1.57
2018-06-23T01:26:13.785Z,1.80
2018-06-23T01:28:42.270Z,1.97
2018-06-23T01:31:11.216Z,2.07
2018-06-23T01:33:40.099Z,1.93
2018-06-23T01:36:09.024Z,1.70
2018-06-23T01:38:37.960Z,1.70
2018-06-23T01:41:06.856Z,2.10
2018-06-23T01:43:35.755Z,1.70
2018-06-23T01:46:04.724Z,1.53
2018-06-23T01:48:33.660Z,2.00
2018-06-23T01:51:02.557Z,2.30
2018-06-23T01:53:31.465Z,2.27
2018-06-23T01:55:59.946Z,1.90
2018-06-23T01:58:28.452Z,2.17
2018-06-23T02:00:57.473Z,1.73
2018-06-23T02:03:26.374Z,1.93
2018-06-23T02:05:55.247Z,1.57
2018-06-23T02:08:24.090Z,1.80
2018-06-23T02:10:52.586Z,1.80
2018-06-23T02:13:21.528Z,1.90
2018-06-23T02:15:55.779Z,2.00
2018-06-23T02:18:29.607Z,1.90
2018-06-23T02:21:03.629Z,1.80
2018-06-23T02:23:37.729Z,1.80
2018-06-23T02:26:11.911Z,1.87
2018-06-23T02:28:45.643Z,2.73
2018-06-23T02:31:19.663Z,2.17
2018-06-23T02:33:53.662Z,1.97
2018-06-23T02:36:22.528Z,2.20
2018-06-23T02:38:51.449Z,2.00
2018-06-23T02:41:20.469Z,2.30
2018-06-23T02:43:49.384Z,2.30
2018-06-23T02:46:18.283Z,1.80
2018-06-23T02:48:47.164Z,1.90
2018-06-23T02:51:16.164Z,2.00
2018-06-23T02:53:45.065Z,2.00
2018-06-23T02:56:13.560Z,1.97
2018-06-23T02:58:42.446Z,2.00
2018-06-23T03:01:11.018Z,1.90
2018-06-23T03:03:39.526Z,2.00
2018-06-23T03:06:08.426Z,2.10
2018-06-23T03:08:37.353Z,2.03
2018-06-23T03:11:06.272Z,2.10
2018-06-23T03:13:35.152Z,2.13
2018-06-23T03:16:04.070Z,2.27
2018-06-23T03:18:32.967Z,11.57
2018-06-23T03:21:01.861Z,10.37
2018-06-23T03:23:30.769Z,6.77
2018-06-23T03:25:59.639Z,10.93
2018-06-23T03:28:28.563Z,6.40
2018-06-23T03:30:57.445Z,5.37
2018-06-23T03:33:26.304Z,4.10
2018-06-23T03:35:55.222Z,3.30
2018-06-23T03:38:24.119Z,4.13
2018-06-23T03:40:53.004Z,15.00
2018-06-23T03:43:21.921Z,32.93
2018-06-23T03:45:50.862Z,3.07
2018-06-23T03:48:19.689Z,1.93
2018-06-23T03:50:48.657Z,2.27
2018-06-23T03:53:17.546Z,2.03
2018-06-23T03:55:46.467Z,2.10
2018-06-23T03:58:15.368Z,2.47
2018-06-23T04:00:49.601Z,1.90
2018-06-23T04:03:18.521Z,2.10
2018-06-23T04:05:48.390Z,2.10
2018-06-23T04:08:17.726Z,1.80
2018-06-23T04:10:46.811Z,2.00
2018-06-23T04:13:15.997Z,1.90
2018-06-23T04:15:44.480Z,2.00
2018-06-23T04:18:12.989Z,2.10
2018-06-23T04:20:41.912Z,2.13
2018-06-23T04:23:10.784Z,2.70
2018-06-23T04:25:39.793Z,2.80
2018-06-23T04:28:08.706Z,2.17
2018-06-23T04:30:37.595Z,2.20
2018-06-23T04:33:06.537Z,2.10
2018-06-23T04:35:35.439Z,1.80
2018-06-23T04:38:04.372Z,1.87
2018-06-23T04:40:33.297Z,2.20
2018-06-23T04:43:02.179Z,2.13
2018-06-23T04:45:31.130Z,2.00
2018-06-23T04:48:00.033Z,2.10
2018-06-23T04:50:28.877Z,2.90
2018-06-23T04:52:57.776Z,4.47
2018-06-23T04:55:26.775Z,53.27
2018-06-23T04:57:55.697Z,48.53
2018-06-23T05:00:27.092Z,31.40
2018-06-23T05:02:57.007Z,27.17
2018-06-23T05:05:26.330Z,8.73
2018-06-23T05:07:55.168Z,3.27
2018-06-23T05:10:24.060Z,3.00
2018-06-23T05:12:52.923Z,2.90
2018-06-23T05:15:21.805Z,2.70
2018-06-23T05:17:50.728Z,3.00
2018-06-23T05:20:19.667Z,3.30
2018-06-23T05:22:48.648Z,3.20
2018-06-23T05:25:17.613Z,3.50
2018-06-23T05:27:46.473Z,4.00
2018-06-23T05:30:15.435Z,4.37
2018-06-23T05:32:44.307Z,3.30
2018-06-23T05:35:13.210Z,3.33
2018-06-23T05:37:42.207Z,3.80
2018-06-23T05:40:11.126Z,3.20
2018-06-23T05:42:39.957Z,3.43
2018-06-23T05:45:08.875Z,3.73
2018-06-23T05:47:37.745Z,3.80
2018-06-23T05:50:06.640Z,5.03
2018-06-23T05:52:35.734Z,3.67
2018-06-23T05:55:05.016Z,2.97
2018-06-23T05:57:34.320Z,3.33
2018-06-23T06:00:03.351Z,5.27
2018-06-23T06:02:32.217Z,5.10
2018-06-23T06:05:01.209Z,2.60
2018-06-23T06:07:30.202Z,2.90
2018-06-23T06:09:59.101Z,2.20
2018-06-23T06:12:28.038Z,2.30
2018-06-23T06:14:56.509Z,2.60
2018-06-23T06:17:27.718Z,2.40
2018-06-23T06:19:57.620Z,2.07
2018-06-23T06:22:30.707Z,1.93
2018-06-23T06:24:59.682Z,2.60
2018-06-23T06:27:28.762Z,2.10
2018-06-23T06:29:58.364Z,1.80
2018-06-23T06:32:27.767Z,2.00
2018-06-23T06:34:56.260Z,1.97
2018-06-23T06:37:25.486Z,1.80
2018-06-23T06:39:54.645Z,4.93
2018-06-23T06:42:23.834Z,2.30
2018-06-23T06:44:52.743Z,2.00
2018-06-23T06:47:21.659Z,2.50
2018-06-23T06:49:50.565Z,2.30
2018-06-23T06:52:19.443Z,2.30
2018-06-23T06:54:48.342Z,1.90
2018-06-23T06:57:16.779Z,2.10
2018-06-23T06:59:45.649Z,2.20
2018-06-23T07:02:14.084Z,2.37
2018-06-23T07:04:42.991Z,1.90
2018-06-23T07:07:11.982Z,2.20
2018-06-23T07:09:40.813Z,1.70
2018-06-23T07:12:09.671Z,1.60
2018-06-23T07:14:38.587Z,1.50
2018-06-23T07:17:07.842Z,1.90
2018-06-23T07:19:36.772Z,5.70
2018-06-23T07:22:05.318Z,2.90
2018-06-23T07:24:34.188Z,1.50
2018-06-23T07:27:03.099Z,1.60
2018-06-23T07:29:32.039Z,1.90
2018-06-23T07:32:01.416Z,1.50
2018-06-23T07:34:30.611Z,1.47
2018-06-23T07:36:59.843Z,1.50
2018-06-23T07:39:29.126Z,1.60
2018-06-23T07:41:58.252Z,1.30
2018-06-23T07:44:27.426Z,3.83
2018-06-23T07:46:56.652Z,2.40
2018-06-23T07:49:25.810Z,3.77
2018-06-23T07:51:55.011Z,1.80
2018-06-23T07:54:24.410Z,1.57
2018-06-23T07:56:53.615Z,1.37
2018-06-23T07:59:22.805Z,1.20
2018-06-23T08:01:52.005Z,1.40
2018-06-23T08:04:21.130Z,1.43
2018-06-23T08:06:50.382Z,1.40
2018-06-23T08:09:19.173Z,1.33
2018-06-23T08:11:47.823Z,1.33
2018-06-23T08:14:16.696Z,1.40
2018-06-23T08:16:45.588Z,1.37
2018-06-23T08:19:14.488Z,1.43
2018-06-23T08:21:43.604Z,1.40
2018-06-23T08:24:12.803Z,1.20
2018-06-23T08:26:42.103Z,1.87
2018-06-23T08:29:11.159Z,1.50
2018-06-23T08:31:40.558Z,1.30
2018-06-23T08:34:09.824Z,1.40
2018-06-23T08:36:39.344Z,5.83
2018-06-23T08:39:09.005Z,4.27
2018-06-23T08:41:38.320Z,1.53
2018-06-23T08:44:07.526Z,1.40
2018-06-23T08:46:36.663Z,1.27
2018-06-23T08:49:05.675Z,1.30
2018-06-23T08:51:34.793Z,1.07
2018-06-23T08:54:04.005Z,1.37
2018-06-23T08:56:32.764Z,1.30
2018-06-23T08:59:04.307Z,1.10
2018-06-23T09:01:33.205Z,1.50
2018-06-23T09:04:02.650Z,1.30
2018-06-23T09:06:31.603Z,1.50
2018-06-23T09:09:00.952Z,1.43
2018-06-23T09:11:30.076Z,1.40
2018-06-23T09:13:59.504Z,1.20
2018-06-23T09:16:28.392Z,1.33
2018-06-23T09:18:57.655Z,1.20
2018-06-23T09:21:27.056Z,1.10
2018-06-23T09:23:56.362Z,1.10
2018-06-23T09:26:25.509Z,1.27
2018-06-23T09:28:54.139Z,1.90
2018-06-23T09:31:23.340Z,3.63
2018-06-23T09:33:52.289Z,3.03
2018-06-23T09:36:21.657Z,1.20
2018-06-23T09:38:50.718Z,1.50
2018-06-23T09:41:20.117Z,1.20
2018-06-23T09:43:49.483Z,1.10
2018-06-23T09:46:20.232Z,1.10
2018-06-23T09:48:49.212Z,1.20
2018-06-23T09:51:18.220Z,2.03
2018-06-23T09:53:47.684Z,1.20
2018-06-23T09:56:17.217Z,1.43
2018-06-23T09:58:46.556Z,1.57
2018-06-23T10:01:15.922Z,1.20
2018-06-23T10:03:45.510Z,1.20
2018-06-23T10:06:14.945Z,4.17
2018-06-23T10:08:44.117Z,3.70
2018-06-23T10:11:13.469Z,5.23
2018-06-23T10:13:42.837Z,1.10
2018-06-23T10:16:12.138Z,2.93
2018-06-23T10:18:41.621Z,5.80
2018-06-23T10:21:10.065Z,4.27
2018-06-23T10:23:39.116Z,1.23
2018-06-23T10:26:08.462Z,1.30
2018-06-23T10:28:37.578Z,1.20
2018-06-23T10:31:07.815Z,1.27
2018-06-23T10:33:36.545Z,1.17
2018-06-23T10:36:05.965Z,1.07
2018-06-23T10:38:35.286Z,1.13
2018-06-23T10:41:04.420Z,1.40
2018-06-23T10:43:33.640Z,1.20
2018-06-23T10:46:02.817Z,0.80
2018-06-23T10:48:32.036Z,1.10
2018-06-23T10:51:01.294Z,1.07
2018-06-23T10:53:30.594Z,1.20
2018-06-23T10:55:59.396Z,1.40
2018-06-23T10:58:28.788Z,1.10
2018-06-23T11:00:58.083Z,1.20
2018-06-23T11:03:26.652Z,1.10
2018-06-23T11:05:55.999Z,1.07
2018-06-23T11:08:25.257Z,1.30
2018-06-23T11:10:54.356Z,1.30
2018-06-23T11:13:23.492Z,5.33
2018-06-23T11:15:52.669Z,1.20
2018-06-23T11:18:21.838Z,2.60
2018-06-23T11:20:51.058Z,1.10
2018-06-23T11:23:20.258Z,1.30
2018-06-23T11:25:49.376Z,1.10
2018-06-23T11:28:18.643Z,1.33
2018-06-23T11:30:47.798Z,1.10
2018-06-23T11:33:17.036Z,1.00
2018-06-23T11:35:46.268Z,1.40
2018-06-23T11:38:15.566Z,1.20
2018-06-23T11:40:44.859Z,1.10
2018-06-23T11:43:14.233Z,1.00
2018-06-23T11:45:43.639Z,1.07
2018-06-23T11:48:12.835Z,1.23
2018-06-23T11:50:42.152Z,1.27
2018-06-23T11:53:11.525Z,1.40
2018-06-23T11:55:40.732Z,2.00
2018-06-23T11:58:09.733Z,1.20
2018-06-23T12:00:39.057Z,1.50
2018-06-23T12:03:08.068Z,1.23
2018-06-23T12:05:37.071Z,1.17
2018-06-23T12:08:06.437Z,1.00
2018-06-23T12:10:35.713Z,1.10
2018-06-23T12:13:04.737Z,1.17
2018-06-23T12:15:34.248Z,1.60
2018-06-23T12:18:03.440Z,1.30
2018-06-23T12:20:32.744Z,1.27
2018-06-23T12:23:01.720Z,1.77
2018-06-23T12:25:31.159Z,1.00
2018-06-23T12:28:00.421Z,1.50
2018-06-23T12:30:29.639Z,1.10
2018-06-23T12:32:58.500Z,1.53
2018-06-23T12:35:27.596Z,1.30
2018-06-23T12:37:56.464Z,1.30
2018-06-23T12:40:25.234Z,1.10
2018-06-23T12:42:54.529Z,1.30
2018-06-23T12:45:23.447Z,1.40
2018-06-23T12:47:52.881Z,1.00
2018-06-23T12:50:22.283Z,1.20
2018-06-23T12:52:51.563Z,1.10
2018-06-23T12:55:20.967Z,1.20
2018-06-23T12:57:49.822Z,1.40
2018-06-23T13:00:18.346Z,1.30
2018-06-23T13:02:47.295Z,1.20
2018-06-23T13:05:15.802Z,1.07
2018-06-23T13:07:44.998Z,1.13
2018-06-23T13:10:14.013Z,1.20
2018-06-23T13:12:43.459Z,1.10
2018-06-23T13:15:12.431Z,1.83
2018-06-23T13:17:41.676Z,1.13
2018-06-23T13:20:10.289Z,1.20
2018-06-23T13:22:39.571Z,1.20
2018-06-23T13:25:08.473Z,2.20
2018-06-23T13:27:37.404Z,1.30
2018-06-23T13:30:06.874Z,1.17
2018-06-23T13:32:36.146Z,1.03
2018-06-23T13:35:05.596Z,1.07
2018-06-23T13:37:34.756Z,1.10
2018-06-23T13:40:03.768Z,1.13
2018-06-23T13:42:33.068Z,1.20
2018-06-23T13:45:01.955Z,1.00
2018-06-23T13:47:31.436Z,0.90
2018-06-23T13:50:00.456Z,1.10
2018-06-23T13:52:29.656Z,1.03
2018-06-23T13:54:59.020Z,1.13
2018-06-23T13:57:27.915Z,1.10
2018-06-23T13:59:57.215Z,1.10
2018-06-23T14:02:26.507Z,1.10
2018-06-23T14:04:55.783Z,1.20
2018-06-23T14:07:24.418Z,1.10
2018-06-23T14:09:53.681Z,1.10
2018-06-23T14:12:22.260Z,1.30
2018-06-23T14:14:50.811Z,1.33
2018-06-23T14:17:20.053Z,1.40
2018-06-23T14:19:49.332Z,1.40
2018-06-23T14:22:18.244Z,1.30
2018-06-23T14:24:47.303Z,1.17
2018-06-23T14:27:16.640Z,1.40
2018-06-23T14:29:46.151Z,1.20
2018-06-23T14:32:15.249Z,1.30
2018-06-23T14:34:44.362Z,1.17
2018-06-23T14:37:13.381Z,1.10
2018-06-23T14:39:42.459Z,1.57
2018-06-23T14:42:11.784Z,1.03
2018-06-23T14:44:41.156Z,1.00
2018-06-23T14:47:10.038Z,1.30
2018-06-23T14:49:39.386Z,1.10
2018-06-23T14:52:08.643Z,1.30
2018-06-23T14:54:37.798Z,1.30
2018-06-23T14:57:07.132Z,1.20
2018-06-23T14:59:36.048Z,1.30
2018-06-23T15:02:05.325Z,1.27
2018-06-23T15:04:34.470Z,1.57
2018-06-23T15:07:03.104Z,1.30
2018-06-23T15:09:42.884Z,1.33
2018-06-23T15:12:23.114Z,1.30
2018-06-23T15:14:52.381Z,1.30
2018-06-23T15:17:21.649Z,1.10
2018-06-23T15:19:50.989Z,1.37
2018-06-23T15:22:20.259Z,1.20
2018-06-23T15:24:49.329Z,1.40
2018-06-23T15:27:18.541Z,1.40
2018-06-23T15:29:47.169Z,1.30
2018-06-23T15:32:16.450Z,1.30
2018-06-23T15:34:45.844Z,1.30
2018-06-23T15:37:15.164Z,1.50
2018-06-23T15:39:44.172Z,1.60
2018-06-23T15:42:13.436Z,1.40
2018-06-23T15:44:42.759Z,3.50
2018-06-23T15:47:11.995Z,1.43
2018-06-23T15:49:41.070Z,1.13
2018-06-23T15:52:10.431Z,1.30
2018-06-23T15:54:39.520Z,1.23
2018-06-23T15:57:08.839Z,1.10
2018-06-23T15:59:38.140Z,1.30
2018-06-23T16:02:07.400Z,1.30
2018-06-23T16:04:36.497Z,1.10
2018-06-23T16:07:05.207Z,1.30
2018-06-23T16:09:34.511Z,2.70
2018-06-23T16:12:03.381Z,1.70
2018-06-23T16:14:31.907Z,3.80
2018-06-23T16:17:01.206Z,1.60
2018-06-23T16:19:30.505Z,1.50
2018-06-23T16:21:59.684Z,1.40
2018-06-23T16:24:28.955Z,1.40
2018-06-23T16:26:57.512Z,1.20
2018-06-23T16:29:26.554Z,1.60
2018-06-23T16:31:55.867Z,1.50
2018-06-23T16:34:25.088Z,1.90
2018-06-23T16:36:54.457Z,1.30
2018-06-23T16:39:23.840Z,1.40
2018-06-23T16:41:53.206Z,1.40
2018-06-23T16:44:22.401Z,1.70
2018-06-23T16:46:51.566Z,1.90
2018-06-23T16:49:20.728Z,2.27
2018-06-23T16:51:49.452Z,1.23
2018-06-23T16:54:18.824Z,1.50
2018-06-23T16:56:48.087Z,1.40
2018-06-23T16:59:17.469Z,1.60
2018-06-23T17:01:46.700Z,1.40
2018-06-23T17:04:15.830Z,1.50
2018-06-23T17:06:45.009Z,1.60
2018-06-23T17:09:14.159Z,1.30
2018-06-23T17:11:43.451Z,1.30
2018-06-23T17:14:12.623Z,1.30
2018-06-23T17:16:41.855Z,1.27
2018-06-23T17:19:11.122Z,3.33
2018-06-23T17:21:40.410Z,6.53
2018-06-23T17:24:09.431Z,2.60
2018-06-23T17:26:38.605Z,1.57
2018-06-23T17:29:07.754Z,1.60
2018-06-23T17:31:37.205Z,1.50
2018-06-23T17:34:06.369Z,1.50
2018-06-23T17:36:35.109Z,1.57
2018-06-23T17:39:06.349Z,3.00
2018-06-23T17:41:35.687Z,1.37
2018-06-23T17:44:04.925Z,1.23
2018-06-23T17:46:34.629Z,1.37
2018-06-23T17:49:03.828Z,1.40
2018-06-23T17:51:33.140Z,1.63
2018-06-23T17:54:02.325Z,1.70
2018-06-23T17:56:31.652Z,2.17
2018-06-23T17:59:00.917Z,13.87
2018-06-23T18:01:30.125Z,1.90
2018-06-23T18:03:59.421Z,1.50
2018-06-23T18:06:28.706Z,1.60
2018-06-23T18:08:58.024Z,1.73
2018-06-23T18:11:28.387Z,2.47
2018-06-23T18:13:57.597Z,2.43
2018-06-23T18:16:26.864Z,2.00
2018-06-23T18:18:56.066Z,1.60
2018-06-23T18:21:25.262Z,1.97
2018-06-23T18:23:54.415Z,1.70
2018-06-23T18:26:23.020Z,1.63
2018-06-23T18:28:52.203Z,1.70
2018-06-23T18:31:21.423Z,2.10
2018-06-23T18:33:50.668Z,2.10
2018-06-23T18:36:19.808Z,1.40
2018-06-23T18:38:49.066Z,1.77
2018-06-23T18:41:18.226Z,1.57
2018-06-23T18:43:47.184Z,3.03
2018-06-23T18:46:16.075Z,14.43
2018-06-23T18:48:45.556Z,1.87
2018-06-23T18:51:14.771Z,1.50
2018-06-23T18:53:43.959Z,1.63
2018-06-23T18:56:12.692Z,1.57
2018-06-23T18:58:41.965Z,1.40
2018-06-23T19:01:11.256Z,1.50
2018-06-23T19:03:40.556Z,1.53
2018-06-23T19:06:09.865Z,1.50
2018-06-23T19:08:39.097Z,1.50
2018-06-23T19:11:08.345Z,1.50
2018-06-23T19:13:36.960Z,2.03
2018-06-23T19:16:06.246Z,1.97
2018-06-23T19:18:35.620Z,1.90
2018-06-23T19:21:04.366Z,1.93
2018-06-23T19:23:33.636Z,2.30
2018-06-23T19:26:02.573Z,2.10
2018-06-23T19:28:31.719Z,1.80
2018-06-23T19:31:00.944Z,1.90
2018-06-23T19:33:30.216Z,1.60
2018-06-23T19:35:59.239Z,1.90
2018-06-23T19:38:28.291Z,2.00
2018-06-23T19:40:57.608Z,3.77
2018-06-23T19:43:26.862Z,2.03
2018-06-23T19:45:56.135Z,2.20
2018-06-23T19:48:25.373Z,2.00
2018-06-23T19:50:54.008Z,2.33
2018-06-23T19:53:23.261Z,2.43
2018-06-23T19:55:52.583Z,2.23
2018-06-23T19:58:21.877Z,2.33
2018-06-23T20:00:51.271Z,1.97
2018-06-23T20:03:20.559Z,2.50
2018-06-23T20:05:49.186Z,2.30
2018-06-23T20:08:18.476Z,2.63
2018-06-23T20:10:47.075Z,2.10
2018-06-23T20:13:16.204Z,2.40
2018-06-23T20:15:45.440Z,2.37
2018-06-23T20:18:14.736Z,2.33
2018-06-23T20:20:44.034Z,2.13
2018-06-23T20:23:13.334Z,2.27
2018-06-23T20:25:42.647Z,2.37
2018-06-23T20:28:11.856Z,2.27
2018-06-23T20:30:40.819Z,6.57
2018-06-23T20:33:09.989Z,2.97
2018-06-23T20:35:39.267Z,2.30
2018-06-23T20:38:08.495Z,2.50
2018-06-23T20:40:37.216Z,2.50
2018-06-23T20:43:07.066Z,2.10
2018-06-23T20:45:36.304Z,2.23
2018-06-23T20:48:05.563Z,2.30
2018-06-23T20:50:34.762Z,1.77
2018-06-23T20:53:04.095Z,1.93
2018-06-23T20:55:33.411Z,2.00
2018-06-23T20:58:02.505Z,2.20
2018-06-23T21:00:31.943Z,2.10
2018-06-23T21:03:01.229Z,2.20
2018-06-23T21:05:30.429Z,2.17
2018-06-23T21:07:59.850Z,1.90
2018-06-23T21:10:39.675Z,1.90
2018-06-23T21:13:09.089Z,2.30
2018-06-23T21:15:38.367Z,2.00
2018-06-23T21:18:07.923Z,2.20
2018-06-23T21:20:37.268Z,1.80
2018-06-23T21:23:06.435Z,1.97
2018-06-23T21:25:35.163Z,2.00
2018-06-23T21:28:04.610Z,2.17
2018-06-23T21:30:33.878Z,2.00
2018-06-23T21:33:03.125Z,2.27
2018-06-23T21:35:32.397Z,2.13
2018-06-23T21:38:01.757Z,2.50
2018-06-23T21:40:31.164Z,2.00
2018-06-23T21:43:00.426Z,2.47
2018-06-23T21:45:29.154Z,2.00
2018-06-23T21:47:58.508Z,2.10
2018-06-23T21:50:27.830Z,1.70
2018-06-23T21:52:57.100Z,1.90
2018-06-23T21:55:25.903Z,2.17
2018-06-23T21:57:54.730Z,1.90
2018-06-23T22:00:40.195Z,2.07
2018-06-23T22:03:10.784Z,2.23
2018-06-23T22:05:39.425Z,2.20
2018-06-23T22:08:09.642Z,2.03
2018-06-23T22:10:39.013Z,2.10
2018-06-23T22:13:08.325Z,2.30
2018-06-23T22:15:37.617Z,1.90
2018-06-23T22:18:06.943Z,1.90
2018-06-23T22:20:36.254Z,2.10
2018-06-23T22:23:05.601Z,2.00
2018-06-23T22:25:34.844Z,2.00
2018-06-23T22:28:04.142Z,2.00
2018-06-23T22:30:33.524Z,2.10
2018-06-23T22:33:02.897Z,2.17
2018-06-23T22:35:32.239Z,1.87
2018-06-23T22:38:01.424Z,1.90
2018-06-23T22:40:30.637Z,1.77
2018-06-23T22:42:59.812Z,2.10
2018-06-23T22:45:29.015Z,1.80
2018-06-23T22:47:58.304Z,1.90
2018-06-23T22:50:27.497Z,1.83
2018-06-23T22:52:56.717Z,1.90
2018-06-23T22:55:25.932Z,1.90
2018-06-23T22:57:55.296Z,1.87
2018-06-23T23:00:24.602Z,1.87
2018-06-23T23:02:53.778Z,2.10
2018-06-23T23:05:23.094Z,1.73
2018-06-23T23:07:52.279Z,1.97
2018-06-23T23:10:21.005Z,1.83
2018-06-23T23:12:50.193Z,31.40
2018-06-23T23:15:19.556Z,15.17
2018-06-23T23:17:48.300Z,8.17
2018-06-23T23:20:17.440Z,2.30
2018-06-23T23:22:46.134Z,1.90
2018-06-23T23:25:15.319Z,1.83
2018-06-23T23:27:44.035Z,1.77
2018-06-23T23:30:13.463Z,2.00
2018-06-23T23:32:42.691Z,1.90
2018-06-23T23:35:11.851Z,1.80
2018-06-23T23:37:41.127Z,1.67
2018-06-23T23:40:10.414Z,1.90
2018-06-23T23:42:39.727Z,1.80
2018-06-23T23:45:09.033Z,1.90
2018-06-23T23:47:38.193Z,1.83
2018-06-23T23:50:07.536Z,1.83
2018-06-23T23:52:36.959Z,1.70
2018-06-23T23:55:06.424Z,2.10
2018-06-23T23:57:35.605Z,1.67
